This is the latest recevied weather packets stored in our database for station/object IZ2WMD-13. If no packets are shown the sender has not sent any weather packets the latest 10 day(s).
| Time | Temp. | Humidity | Pressure | Rain* | Wind** | Luminosity | Snow |
|---|---|---|---|---|---|---|---|
| 1777907909 | 22.78° C | 31% | 1013.9 hPa | - | - | - | - |
| 1777906705 | 23.33° C | 32% | 1014.1 hPa | - | - | - | - |
| 1777904295 | 22.78° C | 30% | 1014.3 hPa | - | - | - | - |
| 1777903091 | 23.89° C | 31% | 1014.4 hPa | - | - | - | - |
| 1777900681 | 23.33° C | 33% | 1014.7 hPa | - | - | - | - |
| 1777898272 | 22.78° C | 32% | 1015 hPa | - | - | - | - |
| 1777897067 | 22.22° C | 32% | 1015.4 hPa | - | - | - | - |
| 1777895862 | 22.22° C | 33% | 1015.3 hPa | - | - | - | - |
| 1777894657 | 22.22° C | 31% | 1015.3 hPa | - | - | - | - |
| 1777892247 | 22.22° C | 31% | 1015.4 hPa | - | - | - | - |
| 1777891042 | 22.22° C | 34% | 1015.8 hPa | - | - | - | - |
| 1777888632 | 21.67° C | 33% | 1016 hPa | - | - | - | - |
| 1777887427 | 21.11° C | 33% | 1016.2 hPa | - | - | - | - |
| 1777886223 | 22.22° C | 31% | 1016.2 hPa | - | - | - | - |
| 1777885017 | 22.22° C | 33% | 1016.1 hPa | - | - | - | - |
| 1777883813 | 21.67° C | 36% | 1016 hPa | - | - | - | - |
| 1777881403 | 20.56° C | 37% | 1016.1 hPa | - | - | - | - |
| 1777880198 | 20° C | 37% | 1015.9 hPa | - | - | - | - |
| 1777878994 | 19.44° C | 43% | 1016.2 hPa | - | - | - | - |
| 1777877789 | 18.89° C | 51% | 1016.2 hPa | - | - | - | - |
| 1777875380 | 15° C | 62% | 1016.3 hPa | - | - | - | - |
| 1777872970 | 12.22° C | 72% | 1016.6 hPa | - | - | - | - |
| 1777871765 | 10.56° C | 77% | 1016.4 hPa | - | - | - | - |
| 1777870560 | 10.56° C | 77% | 1016 hPa | - | - | - | - |
| 1777868150 | 10° C | 77% | 1015.9 hPa | - | - | - | - |
* Rain since midnight (hover to see other rain measurements)
** Current wind speed in m/s (hover to see current wind gust speed)